sensor_id;sensor_type;location;lat;lon;timestamp;temperature;humidity
2767;DHT22;1391;46.74287300;11.63683300;2023-05-10T00:01:00;11.80;99.90
2767;DHT22;1391;46.74287300;11.63683300;2023-05-10T00:03:28;11.70;99.90
2767;DHT22;1391;46.74287300;11.63683300;2023-05-10T00:05:55;11.80;99.90
2767;DHT22;1391;46.74287300;11.63683300;2023-05-10T00:08:23;11.80;99.90
2767;DHT22;1391;46.74287300;11.63683300;2023-05-10T00:10:53;11.70;99.90
2767;DHT22;1391;46.74287300;11.63683300;2023-05-10T00:13:24;11.80;99.90
2767;DHT22;1391;46.74287300;11.63683300;2023-05-10T00:15:58;11.70;99.90
2767;DHT22;1391;46.74287300;11.63683300;2023-05-10T00:18:25;11.70;99.90
2767;DHT22;1391;46.74287300;11.63683300;2023-05-10T00:20:53;11.80;99.90
2767;DHT22;1391;46.74287300;11.63683300;2023-05-10T00:23:21;11.80;99.90
2767;DHT22;1391;46.74287300;11.63683300;2023-05-10T00:25:48;11.70;99.90
2767;DHT22;1391;46.74287300;11.63683300;2023-05-10T00:28:16;11.80;99.90
2767;DHT22;1391;46.74287300;11.63683300;2023-05-10T00:30:45;11.60;99.90
2767;DHT22;1391;46.74287300;11.63683300;2023-05-10T00:33:15;11.60;99.90
2767;DHT22;1391;46.74287300;11.63683300;2023-05-10T00:35:43;11.60;99.90
2767;DHT22;1391;46.74287300;11.63683300;2023-05-10T00:38:10;11.50;99.90
2767;DHT22;1391;46.74287300;11.63683300;2023-05-10T00:40:38;11.80;99.90
2767;DHT22;1391;46.74287300;11.63683300;2023-05-10T00:43:05;11.80;99.90
2767;DHT22;1391;46.74287300;11.63683300;2023-05-10T00:45:33;11.70;99.90
2767;DHT22;1391;46.74287300;11.63683300;2023-05-10T00:48:04;11.70;99.90
2767;DHT22;1391;46.74287300;11.63683300;2023-05-10T00:50:33;11.70;99.90
2767;DHT22;1391;46.74287300;11.63683300;2023-05-10T00:53:01;11.80;99.90
2767;DHT22;1391;46.74287300;11.63683300;2023-05-10T00:55:29;11.80;99.90
2767;DHT22;1391;46.74287300;11.63683300;2023-05-10T00:57:57;11.80;99.90
2767;DHT22;1391;46.74287300;11.63683300;2023-05-10T01:00:24;11.80;99.90
2767;DHT22;1391;46.74287300;11.63683300;2023-05-10T01:02:53;11.80;99.90
2767;DHT22;1391;46.74287300;11.63683300;2023-05-10T01:05:23;11.80;99.90
2767;DHT22;1391;46.74287300;11.63683300;2023-05-10T01:07:52;11.80;99.90
2767;DHT22;1391;46.74287300;11.63683300;2023-05-10T01:10:19;11.80;99.90
2767;DHT22;1391;46.74287300;11.63683300;2023-05-10T01:12:47;11.70;99.90
2767;DHT22;1391;46.74287300;11.63683300;2023-05-10T01:15:16;11.70;99.90
2767;DHT22;1391;46.74287300;11.63683300;2023-05-10T01:17:45;11.70;99.90
2767;DHT22;1391;46.74287300;11.63683300;2023-05-10T01:20:14;11.80;99.90
2767;DHT22;1391;46.74287300;11.63683300;2023-05-10T01:22:59;11.80;99.90
2767;DHT22;1391;46.74287300;11.63683300;2023-05-10T01:32:18;11.50;99.90
2767;DHT22;1391;46.74287300;11.63683300;2023-05-10T01:34:57;11.40;99.90
2767;DHT22;1391;46.74287300;11.63683300;2023-05-10T01:37:36;11.70;99.90
2767;DHT22;1391;46.74287300;11.63683300;2023-05-10T01:40:11;11.80;99.90
2767;DHT22;1391;46.74287300;11.63683300;2023-05-10T01:42:53;11.70;99.90
2767;DHT22;1391;46.74287300;11.63683300;2023-05-10T01:45:27;11.80;99.90
2767;DHT22;1391;46.74287300;11.63683300;2023-05-10T01:48:05;11.70;99.90
2767;DHT22;1391;46.74287300;11.63683300;2023-05-10T01:50:36;11.70;99.90
2767;DHT22;1391;46.74287300;11.63683300;2023-05-10T01:53:07;11.80;99.90
2767;DHT22;1391;46.74287300;11.63683300;2023-05-10T01:55:41;11.70;99.90
2767;DHT22;1391;46.74287300;11.63683300;2023-05-10T01:58:19;11.80;99.90
2767;DHT22;1391;46.74287300;11.63683300;2023-05-10T02:00:49;11.80;99.90
2767;DHT22;1391;46.74287300;11.63683300;2023-05-10T02:03:21;11.40;99.90
2767;DHT22;1391;46.74287300;11.63683300;2023-05-10T02:05:50;11.60;99.90
2767;DHT22;1391;46.74287300;11.63683300;2023-05-10T02:08:19;11.20;99.90
2767;DHT22;1391;46.74287300;11.63683300;2023-05-10T02:10:51;11.40;99.90
2767;DHT22;1391;46.74287300;11.63683300;2023-05-10T02:13:21;11.30;99.90
2767;DHT22;1391;46.74287300;11.63683300;2023-05-10T02:15:51;11.20;99.90
2767;DHT22;1391;46.74287300;11.63683300;2023-05-10T02:18:21;11.40;99.90
2767;DHT22;1391;46.74287300;11.63683300;2023-05-10T02:20:50;11.30;99.90
2767;DHT22;1391;46.74287300;11.63683300;2023-05-10T02:23:20;11.20;99.90
2767;DHT22;1391;46.74287300;11.63683300;2023-05-10T02:25:48;11.30;99.90
2767;DHT22;1391;46.74287300;11.63683300;2023-05-10T02:28:18;11.30;99.90
2767;DHT22;1391;46.74287300;11.63683300;2023-05-10T02:30:47;11.30;99.90
2767;DHT22;1391;46.74287300;11.63683300;2023-05-10T02:33:15;11.30;99.90
2767;DHT22;1391;46.74287300;11.63683300;2023-05-10T02:35:46;11.20;99.90
2767;DHT22;1391;46.74287300;11.63683300;2023-05-10T02:38:14;11.30;99.90
2767;DHT22;1391;46.74287300;11.63683300;2023-05-10T02:40:42;11.30;99.90
2767;DHT22;1391;46.74287300;11.63683300;2023-05-10T02:43:12;11.30;99.90
2767;DHT22;1391;46.74287300;11.63683300;2023-05-10T02:45:41;11.20;99.90
2767;DHT22;1391;46.74287300;11.63683300;2023-05-10T02:48:10;11.40;99.90
2767;DHT22;1391;46.74287300;11.63683300;2023-05-10T02:50:39;11.30;99.90
2767;DHT22;1391;46.74287300;11.63683300;2023-05-10T02:53:15;11.30;99.90
2767;DHT22;1391;46.74287300;11.63683300;2023-05-10T02:55:50;11.30;99.90
2767;DHT22;1391;46.74287300;11.63683300;2023-05-10T02:58:19;11.30;99.90
2767;DHT22;1391;46.74287300;11.63683300;2023-05-10T03:00:46;11.30;99.90
2767;DHT22;1391;46.74287300;11.63683300;2023-05-10T03:03:13;11.30;99.90
2767;DHT22;1391;46.74287300;11.63683300;2023-05-10T03:05:41;11.30;99.90
2767;DHT22;1391;46.74287300;11.63683300;2023-05-10T03:08:08;11.30;99.90
2767;DHT22;1391;46.74287300;11.63683300;2023-05-10T03:10:41;11.30;99.90
2767;DHT22;1391;46.74287300;11.63683300;2023-05-10T03:13:24;11.30;99.90
2767;DHT22;1391;46.74287300;11.63683300;2023-05-10T03:15:59;11.30;99.90
2767;DHT22;1391;46.74287300;11.63683300;2023-05-10T03:18:37;11.20;99.90
2767;DHT22;1391;46.74287300;11.63683300;2023-05-10T03:21:11;11.30;99.90
2767;DHT22;1391;46.74287300;11.63683300;2023-05-10T03:23:45;11.30;99.90
2767;DHT22;1391;46.74287300;11.63683300;2023-05-10T03:26:20;11.20;99.90
2767;DHT22;1391;46.74287300;11.63683300;2023-05-10T03:28:52;11.20;99.90
2767;DHT22;1391;46.74287300;11.63683300;2023-05-10T03:31:20;11.30;99.90
2767;DHT22;1391;46.74287300;11.63683300;2023-05-10T03:33:48;11.20;99.90
2767;DHT22;1391;46.74287300;11.63683300;2023-05-10T03:36:16;11.30;99.90
2767;DHT22;1391;46.74287300;11.63683300;2023-05-10T03:38:45;11.20;99.90
2767;DHT22;1391;46.74287300;11.63683300;2023-05-10T03:41:12;11.30;99.90
2767;DHT22;1391;46.74287300;11.63683300;2023-05-10T03:43:39;11.30;99.90
2767;DHT22;1391;46.74287300;11.63683300;2023-05-10T03:46:07;11.30;99.90
2767;DHT22;1391;46.74287300;11.63683300;2023-05-10T03:48:34;11.20;99.90
2767;DHT22;1391;46.74287300;11.63683300;2023-05-10T03:51:02;11.40;99.90
2767;DHT22;1391;46.74287300;11.63683300;2023-05-10T03:53:29;11.30;99.90
2767;DHT22;1391;46.74287300;11.63683300;2023-05-10T03:55:58;11.20;99.90
2767;DHT22;1391;46.74287300;11.63683300;2023-05-10T03:58:25;11.30;99.90
2767;DHT22;1391;46.74287300;11.63683300;2023-05-10T04:00:53;11.20;99.90
2767;DHT22;1391;46.74287300;11.63683300;2023-05-10T04:03:20;11.30;99.90
2767;DHT22;1391;46.74287300;11.63683300;2023-05-10T04:05:48;11.30;99.90
2767;DHT22;1391;46.74287300;11.63683300;2023-05-10T04:08:15;11.20;99.90
2767;DHT22;1391;46.74287300;11.63683300;2023-05-10T04:10:43;11.30;99.90
2767;DHT22;1391;46.74287300;11.63683300;2023-05-10T04:13:11;11.30;99.90
2767;DHT22;1391;46.74287300;11.63683300;2023-05-10T04:15:40;11.30;99.90
2767;DHT22;1391;46.74287300;11.63683300;2023-05-10T04:18:07;11.30;99.90
2767;DHT22;1391;46.74287300;11.63683300;2023-05-10T04:20:35;11.20;99.90
2767;DHT22;1391;46.74287300;11.63683300;2023-05-10T04:23:03;11.30;99.90
2767;DHT22;1391;46.74287300;11.63683300;2023-05-10T04:25:30;11.20;99.90
2767;DHT22;1391;46.74287300;11.63683300;2023-05-10T04:27:57;11.30;99.90
2767;DHT22;1391;46.74287300;11.63683300;2023-05-10T04:30:26;11.30;99.90
2767;DHT22;1391;46.74287300;11.63683300;2023-05-10T04:32:55;11.20;99.90
2767;DHT22;1391;46.74287300;11.63683300;2023-05-10T04:35:22;11.30;99.90
2767;DHT22;1391;46.74287300;11.63683300;2023-05-10T04:37:49;11.30;99.90
2767;DHT22;1391;46.74287300;11.63683300;2023-05-10T04:40:17;11.20;99.90
2767;DHT22;1391;46.74287300;11.63683300;2023-05-10T04:42:44;11.30;99.90
2767;DHT22;1391;46.74287300;11.63683300;2023-05-10T04:45:12;11.20;99.90
2767;DHT22;1391;46.74287300;11.63683300;2023-05-10T04:47:41;11.30;99.90
2767;DHT22;1391;46.74287300;11.63683300;2023-05-10T04:50:09;11.30;99.90
2767;DHT22;1391;46.74287300;11.63683300;2023-05-10T04:52:43;11.20;99.90
2767;DHT22;1391;46.74287300;11.63683300;2023-05-10T04:55:16;11.30;99.90
2767;DHT22;1391;46.74287300;11.63683300;2023-05-10T04:57:43;11.30;99.90
2767;DHT22;1391;46.74287300;11.63683300;2023-05-10T05:00:12;11.20;99.90
2767;DHT22;1391;46.74287300;11.63683300;2023-05-10T05:02:44;11.40;99.90
2767;DHT22;1391;46.74287300;11.63683300;2023-05-10T05:05:12;11.30;99.90
2767;DHT22;1391;46.74287300;11.63683300;2023-05-10T05:07:39;11.20;99.90
2767;DHT22;1391;46.74287300;11.63683300;2023-05-10T05:10:08;11.40;99.90
2767;DHT22;1391;46.74287300;11.63683300;2023-05-10T05:12:35;11.40;99.90
2767;DHT22;1391;46.74287300;11.63683300;2023-05-10T05:15:03;11.30;99.90
2767;DHT22;1391;46.74287300;11.63683300;2023-05-10T05:17:32;11.20;99.90
2767;DHT22;1391;46.74287300;11.63683300;2023-05-10T05:20:01;11.40;99.90
2767;DHT22;1391;46.74287300;11.63683300;2023-05-10T05:22:28;11.40;99.90
2767;DHT22;1391;46.74287300;11.63683300;2023-05-10T05:24:57;11.40;99.90
2767;DHT22;1391;46.74287300;11.63683300;2023-05-10T05:27:24;11.30;99.90
2767;DHT22;1391;46.74287300;11.63683300;2023-05-10T05:29:53;11.30;99.90
2767;DHT22;1391;46.74287300;11.63683300;2023-05-10T05:32:21;11.30;99.90
2767;DHT22;1391;46.74287300;11.63683300;2023-05-10T05:34:48;11.20;99.90
2767;DHT22;1391;46.74287300;11.63683300;2023-05-10T05:37:18;11.30;99.90
2767;DHT22;1391;46.74287300;11.63683300;2023-05-10T05:39:47;11.30;99.90
2767;DHT22;1391;46.74287300;11.63683300;2023-05-10T05:42:14;11.30;99.90
2767;DHT22;1391;46.74287300;11.63683300;2023-05-10T05:44:43;11.30;99.90
2767;DHT22;1391;46.74287300;11.63683300;2023-05-10T05:47:11;11.20;99.90
2767;DHT22;1391;46.74287300;11.63683300;2023-05-10T05:49:38;11.40;99.90
2767;DHT22;1391;46.74287300;11.63683300;2023-05-10T05:52:06;11.40;99.90
2767;DHT22;1391;46.74287300;11.63683300;2023-05-10T05:54:39;11.40;99.90
2767;DHT22;1391;46.74287300;11.63683300;2023-05-10T05:57:10;11.40;99.90
2767;DHT22;1391;46.74287300;11.63683300;2023-05-10T05:59:38;11.40;99.90
2767;DHT22;1391;46.74287300;11.63683300;2023-05-10T06:02:09;11.40;99.90
2767;DHT22;1391;46.74287300;11.63683300;2023-05-10T06:04:39;11.40;99.90
2767;DHT22;1391;46.74287300;11.63683300;2023-05-10T06:07:07;11.30;99.90
2767;DHT22;1391;46.74287300;11.63683300;2023-05-10T06:09:35;11.30;99.90
2767;DHT22;1391;46.74287300;11.63683300;2023-05-10T06:12:04;11.30;99.90
2767;DHT22;1391;46.74287300;11.63683300;2023-05-10T06:14:32;11.30;99.90
2767;DHT22;1391;46.74287300;11.63683300;2023-05-10T06:16:59;11.30;99.90
2767;DHT22;1391;46.74287300;11.63683300;2023-05-10T06:19:30;11.30;99.90
2767;DHT22;1391;46.74287300;11.63683300;2023-05-10T06:21:58;11.30;99.90
2767;DHT22;1391;46.74287300;11.63683300;2023-05-10T06:24:25;11.30;99.90
2767;DHT22;1391;46.74287300;11.63683300;2023-05-10T06:26:53;11.30;99.90
2767;DHT22;1391;46.74287300;11.63683300;2023-05-10T06:29:22;11.20;99.90
2767;DHT22;1391;46.74287300;11.63683300;2023-05-10T06:31:49;11.40;99.90
2767;DHT22;1391;46.74287300;11.63683300;2023-05-10T06:34:17;11.70;99.90
2767;DHT22;1391;46.74287300;11.63683300;2023-05-10T06:36:46;11.10;99.90
2767;DHT22;1391;46.74287300;11.63683300;2023-05-10T06:39:13;11.40;99.90
2767;DHT22;1391;46.74287300;11.63683300;2023-05-10T06:41:41;11.30;99.90
2767;DHT22;1391;46.74287300;11.63683300;2023-05-10T06:44:08;11.20;99.90
2767;DHT22;1391;46.74287300;11.63683300;2023-05-10T06:46:38;11.80;99.90
2767;DHT22;1391;46.74287300;11.63683300;2023-05-10T06:49:05;11.80;99.90
2767;DHT22;1391;46.74287300;11.63683300;2023-05-10T06:51:32;11.70;99.90
2767;DHT22;1391;46.74287300;11.63683300;2023-05-10T06:54:00;11.70;99.90
2767;DHT22;1391;46.74287300;11.63683300;2023-05-10T06:56:27;11.70;99.90
2767;DHT22;1391;46.74287300;11.63683300;2023-05-10T06:58:54;11.70;99.90
2767;DHT22;1391;46.74287300;11.63683300;2023-05-10T07:01:22;11.40;99.90
2767;DHT22;1391;46.74287300;11.63683300;2023-05-10T07:03:51;11.70;99.90
2767;DHT22;1391;46.74287300;11.63683300;2023-05-10T07:06:18;11.70;99.90
2767;DHT22;1391;46.74287300;11.63683300;2023-05-10T07:08:46;11.70;99.90
2767;DHT22;1391;46.74287300;11.63683300;2023-05-10T07:11:13;11.70;99.90
2767;DHT22;1391;46.74287300;11.63683300;2023-05-10T07:13:41;11.70;99.90
2767;DHT22;1391;46.74287300;11.63683300;2023-05-10T07:16:09;11.80;99.90
2767;DHT22;1391;46.74287300;11.63683300;2023-05-10T07:18:37;11.80;99.90
2767;DHT22;1391;46.74287300;11.63683300;2023-05-10T07:21:06;11.70;99.90
2767;DHT22;1391;46.74287300;11.63683300;2023-05-10T07:23:34;11.80;99.90
2767;DHT22;1391;46.74287300;11.63683300;2023-05-10T07:26:03;11.70;99.90
2767;DHT22;1391;46.74287300;11.63683300;2023-05-10T07:28:30;11.80;99.90
2767;DHT22;1391;46.74287300;11.63683300;2023-05-10T07:30:57;11.70;99.90
2767;DHT22;1391;46.74287300;11.63683300;2023-05-10T07:33:25;11.70;99.90
2767;DHT22;1391;46.74287300;11.63683300;2023-05-10T07:35:53;11.40;99.90
2767;DHT22;1391;46.74287300;11.63683300;2023-05-10T07:38:22;11.60;99.90
2767;DHT22;1391;46.74287300;11.63683300;2023-05-10T07:40:50;11.30;99.90
2767;DHT22;1391;46.74287300;11.63683300;2023-05-10T07:43:17;11.20;99.90
2767;DHT22;1391;46.74287300;11.63683300;2023-05-10T07:45:45;11.40;99.90
2767;DHT22;1391;46.74287300;11.63683300;2023-05-10T07:48:12;11.70;99.90
2767;DHT22;1391;46.74287300;11.63683300;2023-05-10T07:50:40;11.10;99.90
2767;DHT22;1391;46.74287300;11.63683300;2023-05-10T07:53:07;11.20;99.90
2767;DHT22;1391;46.74287300;11.63683300;2023-05-10T07:55:37;11.70;99.90
2767;DHT22;1391;46.74287300;11.63683300;2023-05-10T07:58:04;11.50;99.90
2767;DHT22;1391;46.74287300;11.63683300;2023-05-10T08:00:32;11.20;99.90
2767;DHT22;1391;46.74287300;11.63683300;2023-05-10T08:02:59;11.40;99.90
2767;DHT22;1391;46.74287300;11.63683300;2023-05-10T08:05:26;11.30;99.90
2767;DHT22;1391;46.74287300;11.63683300;2023-05-10T08:07:54;11.30;99.90
2767;DHT22;1391;46.74287300;11.63683300;2023-05-10T08:10:21;11.20;99.90
2767;DHT22;1391;46.74287300;11.63683300;2023-05-10T08:12:50;11.30;99.90
2767;DHT22;1391;46.74287300;11.63683300;2023-05-10T08:15:18;11.30;99.90
2767;DHT22;1391;46.74287300;11.63683300;2023-05-10T08:17:45;11.30;99.90
2767;DHT22;1391;46.74287300;11.63683300;2023-05-10T08:20:13;11.30;99.90
2767;DHT22;1391;46.74287300;11.63683300;2023-05-10T08:22:42;11.20;99.90
2767;DHT22;1391;46.74287300;11.63683300;2023-05-10T08:25:09;11.30;99.90
2767;DHT22;1391;46.74287300;11.63683300;2023-05-10T08:27:37;11.10;99.90
2767;DHT22;1391;46.74287300;11.63683300;2023-05-10T08:30:07;11.10;99.90
2767;DHT22;1391;46.74287300;11.63683300;2023-05-10T08:32:35;11.10;99.90
2767;DHT22;1391;46.74287300;11.63683300;2023-05-10T08:35:04;11.10;99.90
2767;DHT22;1391;46.74287300;11.63683300;2023-05-10T08:37:32;11.10;99.90
2767;DHT22;1391;46.74287300;11.63683300;2023-05-10T08:39:59;11.10;99.90
2767;DHT22;1391;46.74287300;11.63683300;2023-05-10T08:42:30;11.00;99.90
2767;DHT22;1391;46.74287300;11.63683300;2023-05-10T08:44:59;11.30;99.90
2767;DHT22;1391;46.74287300;11.63683300;2023-05-10T08:47:29;11.30;99.90
2767;DHT22;1391;46.74287300;11.63683300;2023-05-10T08:49:58;11.30;99.90
2767;DHT22;1391;46.74287300;11.63683300;2023-05-10T08:52:28;11.20;99.90
2767;DHT22;1391;46.74287300;11.63683300;2023-05-10T08:54:57;11.40;99.90
2767;DHT22;1391;46.74287300;11.63683300;2023-05-10T08:57:25;11.40;99.90
2767;DHT22;1391;46.74287300;11.63683300;2023-05-10T08:59:53;11.40;99.90
2767;DHT22;1391;46.74287300;11.63683300;2023-05-10T09:02:21;11.30;99.90
2767;DHT22;1391;46.74287300;11.63683300;2023-05-10T09:04:54;11.20;99.90
2767;DHT22;1391;46.74287300;11.63683300;2023-05-10T09:07:21;11.30;99.90
2767;DHT22;1391;46.74287300;11.63683300;2023-05-10T09:09:49;11.20;99.90
2767;DHT22;1391;46.74287300;11.63683300;2023-05-10T09:12:17;11.30;99.90
2767;DHT22;1391;46.74287300;11.63683300;2023-05-10T09:14:44;11.30;99.90
2767;DHT22;1391;46.74287300;11.63683300;2023-05-10T09:17:12;11.30;99.90
2767;DHT22;1391;46.74287300;11.63683300;2023-05-10T09:19:40;11.30;99.90
2767;DHT22;1391;46.74287300;11.63683300;2023-05-10T09:22:10;11.20;99.90
2767;DHT22;1391;46.74287300;11.63683300;2023-05-10T09:24:37;11.30;99.90
2767;DHT22;1391;46.74287300;11.63683300;2023-05-10T09:27:07;11.20;99.90
2767;DHT22;1391;46.74287300;11.63683300;2023-05-10T09:29:42;11.30;99.90
2767;DHT22;1391;46.74287300;11.63683300;2023-05-10T09:32:10;11.20;99.90
2767;DHT22;1391;46.74287300;11.63683300;2023-05-10T09:34:38;11.30;99.90
2767;DHT22;1391;46.74287300;11.63683300;2023-05-10T09:37:06;11.20;99.90
2767;DHT22;1391;46.74287300;11.63683300;2023-05-10T09:39:35;11.30;99.90
2767;DHT22;1391;46.74287300;11.63683300;2023-05-10T09:42:05;11.30;99.90
2767;DHT22;1391;46.74287300;11.63683300;2023-05-10T09:44:34;11.60;99.90
2767;DHT22;1391;46.74287300;11.63683300;2023-05-10T09:47:03;11.30;99.90
2767;DHT22;1391;46.74287300;11.63683300;2023-05-10T09:49:31;11.30;99.90
2767;DHT22;1391;46.74287300;11.63683300;2023-05-10T09:52:03;11.20;99.90
2767;DHT22;1391;46.74287300;11.63683300;2023-05-10T09:54:34;11.40;99.90
2767;DHT22;1391;46.74287300;11.63683300;2023-05-10T09:57:01;11.30;99.90
2767;DHT22;1391;46.74287300;11.63683300;2023-05-10T09:59:29;11.30;99.90
2767;DHT22;1391;46.74287300;11.63683300;2023-05-10T10:02:00;11.20;99.90
2767;DHT22;1391;46.74287300;11.63683300;2023-05-10T10:04:27;11.70;99.90
2767;DHT22;1391;46.74287300;11.63683300;2023-05-10T10:06:59;11.40;99.90
2767;DHT22;1391;46.74287300;11.63683300;2023-05-10T10:09:28;11.60;99.90
2767;DHT22;1391;46.74287300;11.63683300;2023-05-10T10:11:57;11.30;99.90
2767;DHT22;1391;46.74287300;11.63683300;2023-05-10T10:14:24;11.30;99.90
2767;DHT22;1391;46.74287300;11.63683300;2023-05-10T10:16:52;11.30;99.90
2767;DHT22;1391;46.74287300;11.63683300;2023-05-10T10:19:20;11.30;99.90
2767;DHT22;1391;46.74287300;11.63683300;2023-05-10T10:21:48;11.60;99.90
2767;DHT22;1391;46.74287300;11.63683300;2023-05-10T10:24:16;11.30;99.90
2767;DHT22;1391;46.74287300;11.63683300;2023-05-10T10:26:44;11.30;99.90
2767;DHT22;1391;46.74287300;11.63683300;2023-05-10T10:29:21;11.40;99.90
2767;DHT22;1391;46.74287300;11.63683300;2023-05-10T10:31:57;11.70;99.90
2767;DHT22;1391;46.74287300;11.63683300;2023-05-10T10:34:29;11.40;99.90
2767;DHT22;1391;46.74287300;11.63683300;2023-05-10T10:36:59;11.40;99.90
2767;DHT22;1391;46.74287300;11.63683300;2023-05-10T10:39:32;11.70;99.90
2767;DHT22;1391;46.74287300;11.63683300;2023-05-10T10:42:02;11.10;99.90
2767;DHT22;1391;46.74287300;11.63683300;2023-05-10T10:44:36;11.30;99.90
2767;DHT22;1391;46.74287300;11.63683300;2023-05-10T10:47:06;11.60;99.90
2767;DHT22;1391;46.74287300;11.63683300;2023-05-10T10:49:48;11.30;99.90
2767;DHT22;1391;46.74287300;11.63683300;2023-05-10T10:52:25;11.60;99.90
2767;DHT22;1391;46.74287300;11.63683300;2023-05-10T10:55:00;11.60;99.90
2767;DHT22;1391;46.74287300;11.63683300;2023-05-10T10:57:32;11.30;99.90
2767;DHT22;1391;46.74287300;11.63683300;2023-05-10T11:00:25;11.60;99.90
2767;DHT22;1391;46.74287300;11.63683300;2023-05-10T11:02:57;11.60;99.90
2767;DHT22;1391;46.74287300;11.63683300;2023-05-10T11:05:40;11.60;99.90
2767;DHT22;1391;46.74287300;11.63683300;2023-05-10T11:08:11;11.60;99.90
2767;DHT22;1391;46.74287300;11.63683300;2023-05-10T11:10:48;11.70;99.90
2767;DHT22;1391;46.74287300;11.63683300;2023-05-10T11:13:27;11.40;99.90
2767;DHT22;1391;46.74287300;11.63683300;2023-05-10T11:15:57;11.70;99.90
2767;DHT22;1391;46.74287300;11.63683300;2023-05-10T11:18:27;11.50;99.90
2767;DHT22;1391;46.74287300;11.63683300;2023-05-10T11:20:57;11.20;99.90
2767;DHT22;1391;46.74287300;11.63683300;2023-05-10T11:23:30;11.70;99.90
2767;DHT22;1391;46.74287300;11.63683300;2023-05-10T11:25:59;11.40;99.90
2767;DHT22;1391;46.74287300;11.63683300;2023-05-10T11:28:27;11.70;99.90
2767;DHT22;1391;46.74287300;11.63683300;2023-05-10T11:30:55;11.50;99.90
2767;DHT22;1391;46.74287300;11.63683300;2023-05-10T11:33:27;11.20;99.90
2767;DHT22;1391;46.74287300;11.63683300;2023-05-10T11:35:55;11.30;99.90
2767;DHT22;1391;46.74287300;11.63683300;2023-05-10T11:38:22;11.20;99.90
2767;DHT22;1391;46.74287300;11.63683300;2023-05-10T11:40:51;11.30;99.90
2767;DHT22;1391;46.74287300;11.63683300;2023-05-10T11:43:23;11.30;99.90
2767;DHT22;1391;46.74287300;11.63683300;2023-05-10T11:45:54;11.20;99.90
2767;DHT22;1391;46.74287300;11.63683300;2023-05-10T11:48:23;11.30;99.90
2767;DHT22;1391;46.74287300;11.63683300;2023-05-10T11:50:50;11.20;99.90
2767;DHT22;1391;46.74287300;11.63683300;2023-05-10T11:53:20;11.70;99.90
2767;DHT22;1391;46.74287300;11.63683300;2023-05-10T11:55:48;11.40;99.90
2767;DHT22;1391;46.74287300;11.63683300;2023-05-10T11:58:15;11.70;99.90
2767;DHT22;1391;46.74287300;11.63683300;2023-05-10T12:00:42;11.70;99.90
2767;DHT22;1391;46.74287300;11.63683300;2023-05-10T12:03:12;11.80;99.90
2767;DHT22;1391;46.74287300;11.63683300;2023-05-10T12:05:40;11.70;99.90
2767;DHT22;1391;46.74287300;11.63683300;2023-05-10T12:08:12;11.10;99.90
2767;DHT22;1391;46.74287300;11.63683300;2023-05-10T12:10:40;11.20;99.90
2767;DHT22;1391;46.74287300;11.63683300;2023-05-10T12:13:11;11.60;99.90
2767;DHT22;1391;46.74287300;11.63683300;2023-05-10T12:15:40;11.60;99.90
2767;DHT22;1391;46.74287300;11.63683300;2023-05-10T12:18:08;11.60;99.90
2767;DHT22;1391;46.74287300;11.63683300;2023-05-10T12:20:39;11.60;99.90
2767;DHT22;1391;46.74287300;11.63683300;2023-05-10T12:23:09;11.60;99.90
2767;DHT22;1391;46.74287300;11.63683300;2023-05-10T12:25:37;11.60;99.90
2767;DHT22;1391;46.74287300;11.63683300;2023-05-10T12:28:06;11.60;99.90
2767;DHT22;1391;46.74287300;11.63683300;2023-05-10T12:30:36;11.60;99.90
2767;DHT22;1391;46.74287300;11.63683300;2023-05-10T12:33:08;11.30;99.90
2767;DHT22;1391;46.74287300;11.63683300;2023-05-10T12:35:45;11.30;99.90
2767;DHT22;1391;46.74287300;11.63683300;2023-05-10T12:38:27;11.20;99.90
2767;DHT22;1391;46.74287300;11.63683300;2023-05-10T12:40:57;11.30;99.90
2767;DHT22;1391;46.74287300;11.63683300;2023-05-10T12:43:25;11.30;99.90
2767;DHT22;1391;46.74287300;11.63683300;2023-05-10T12:45:52;11.30;99.90
2767;DHT22;1391;46.74287300;11.63683300;2023-05-10T12:48:20;11.30;99.90
2767;DHT22;1391;46.74287300;11.63683300;2023-05-10T12:50:49;11.30;99.90
2767;DHT22;1391;46.74287300;11.63683300;2023-05-10T12:53:16;11.30;99.90
2767;DHT22;1391;46.74287300;11.63683300;2023-05-10T12:55:44;11.20;99.90
2767;DHT22;1391;46.74287300;11.63683300;2023-05-10T12:58:11;11.30;99.90
2767;DHT22;1391;46.74287300;11.63683300;2023-05-10T13:00:39;11.30;99.90
2767;DHT22;1391;46.74287300;11.63683300;2023-05-10T13:03:06;11.30;99.90
2767;DHT22;1391;46.74287300;11.63683300;2023-05-10T13:05:34;11.20;99.90
2767;DHT22;1391;46.74287300;11.63683300;2023-05-10T13:08:04;11.30;99.90
2767;DHT22;1391;46.74287300;11.63683300;2023-05-10T13:10:32;11.20;99.90
2767;DHT22;1391;46.74287300;11.63683300;2023-05-10T13:12:59;11.40;99.90
2767;DHT22;1391;46.74287300;11.63683300;2023-05-10T13:15:27;11.40;99.90
2767;DHT22;1391;46.74287300;11.63683300;2023-05-10T13:17:54;11.60;99.90
2767;DHT22;1391;46.74287300;11.63683300;2023-05-10T13:20:22;11.30;99.90
2767;DHT22;1391;46.74287300;11.63683300;2023-05-10T13:22:50;11.60;99.90
2767;DHT22;1391;46.74287300;11.63683300;2023-05-10T13:25:18;11.60;99.90
2767;DHT22;1391;46.74287300;11.63683300;2023-05-10T13:27:46;11.60;99.90
2767;DHT22;1391;46.74287300;11.63683300;2023-05-10T13:30:13;11.60;99.90
2767;DHT22;1391;46.74287300;11.63683300;2023-05-10T13:32:40;11.60;99.90
2767;DHT22;1391;46.74287300;11.63683300;2023-05-10T13:35:08;11.30;99.90
2767;DHT22;1391;46.74287300;11.63683300;2023-05-10T13:37:35;11.30;99.90
2767;DHT22;1391;46.74287300;11.63683300;2023-05-10T13:40:04;11.50;99.90
2767;DHT22;1391;46.74287300;11.63683300;2023-05-10T13:42:34;11.50;99.90
2767;DHT22;1391;46.74287300;11.63683300;2023-05-10T13:45:01;11.10;99.90
2767;DHT22;1391;46.74287300;11.63683300;2023-05-10T13:47:29;11.50;99.90
2767;DHT22;1391;46.74287300;11.63683300;2023-05-10T13:49:56;11.40;99.90
2767;DHT22;1391;46.74287300;11.63683300;2023-05-10T13:52:24;11.60;99.90